Time;durP1;ratioP1;P1;durP2;ratioP2;P2;SDS_P1;SDS_P2;PMS_P1;PMS_P2;Temp;Humidity;BMP_temperature;BMP_pressure;BME280_temperature;BME280_humidity;BME280_pressure;Samples;Min_cycle;Max_cycle;Signal;HPM_P1;HPM_P2
2023/08/08 00:00:18;;;;;;;;;2.00;2.00;;;;;19.08;64.35;100635.44;5035525;28;45458;-74
2023/08/08 00:02:43;;;;;;;;;4.00;3.00;;;;;18.84;64.51;100623.13;5036351;28;45506;-74
2023/08/08 00:05:09;;;;;;;;;3.00;2.00;;;;;18.79;65.12;100639.03;5036308;28;45619;-74
2023/08/08 00:07:35;;;;;;;;;2.33;2.00;;;;;18.75;64.44;100626.66;5035873;28;45593;-74
2023/08/08 00:10:00;;;;;;;;;2.00;2.00;;;;;18.81;64.87;100621.38;5036873;28;46347;-74
2023/08/08 00:12:26;;;;;;;;;2.00;2.00;;;;;18.86;64.67;100621.38;5036295;28;45569;-74
2023/08/08 00:14:52;;;;;;;;;3.00;3.00;;;;;18.78;64.68;100615.19;5036350;28;45459;-73
2023/08/08 00:17:17;;;;;;;;;2.00;2.00;;;;;18.81;64.99;100623.16;5036530;28;45454;-74
2023/08/08 00:19:43;;;;;;;;;2.67;2.00;;;;;18.82;65.27;100630.19;5036893;28;45506;-74
2023/08/08 00:22:08;;;;;;;;;3.00;2.33;;;;;18.76;65.24;100615.22;5036519;28;45419;-73
2023/08/08 00:24:34;;;;;;;;;3.00;3.00;;;;;18.76;65.54;100615.22;5037185;28;45549;-73
2023/08/08 00:27:00;;;;;;;;;6.67;4.00;;;;;18.68;65.79;100622.25;5037421;28;45402;-74
2023/08/08 00:29:25;;;;;;;;;2.00;2.00;;;;;18.66;65.73;100614.34;5037320;28;45228;-74
2023/08/08 00:31:51;;;;;;;;;2.00;1.33;;;;;18.59;66.04;100601.13;5036999;28;45461;-74
2023/08/08 00:34:16;;;;;;;;;2.00;2.00;;;;;18.62;66.26;100611.69;5037086;28;45299;-75
2023/08/08 00:36:42;;;;;;;;;4.00;3.00;;;;;18.64;66.67;100620.50;5037176;28;45457;-74
2023/08/08 00:39:07;;;;;;;;;3.00;3.00;;;;;18.61;66.54;100616.09;5036541;28;45435;-74
2023/08/08 00:41:33;;;;;;;;;2.00;1.00;;;;;18.53;66.22;100607.31;5035391;28;45504;-74
2023/08/08 00:43:59;;;;;;;;;2.00;2.00;;;;;18.59;65.47;100611.72;5036446;28;45378;-74
2023/08/08 00:46:24;;;;;;;;;2.67;2.00;;;;;18.52;66.16;100607.31;5036943;28;45464;-74
2023/08/08 00:48:52;;;;;;;;;2.00;1.00;;;;;18.58;65.81;100604.66;5037184;28;45502;-74
2023/08/08 00:51:18;;;;;;;;;2.00;2.00;;;;;18.65;65.55;100607.28;5036518;28;45955;-74
2023/08/08 00:53:45;;;;;;;;;3.00;2.00;;;;;18.53;66.39;100604.66;5036585;28;45456;-74
2023/08/08 00:56:16;;;;;;;;;2.33;2.00;;;;;18.33;66.58;100601.19;5036913;28;45267;-74
2023/08/08 00:58:42;;;;;;;;;3.33;3.00;;;;;18.36;66.49;100593.22;5035518;28;45622;-74
2023/08/08 01:01:08;;;;;;;;;3.67;3.00;;;;;18.40;66.18;100589.69;5036553;28;46174;-74
2023/08/08 01:03:34;;;;;;;;;2.00;2.00;;;;;18.45;66.00;100586.16;5037474;28;45348;-75
2023/08/08 01:06:23;;;;;;;;;2.33;2.00;;;;;18.49;65.83;100597.63;5040186;28;45315;-74
2023/08/08 01:09:04;;;;;;;;;2.00;2.00;;;;;18.38;66.75;100591.47;5038372;28;45312;-74
2023/08/08 01:11:33;;;;;;;;;1.00;1.00;;;;;18.28;66.46;100586.19;5038556;28;45383;-74
2023/08/08 01:13:59;;;;;;;;;2.33;2.00;;;;;18.36;66.02;100588.81;5051399;28;45411;-74
2023/08/08 01:16:26;;;;;;;;;2.67;1.00;;;;;18.33;66.06;100586.19;5034816;28;45375;-74
2023/08/08 01:18:52;;;;;;;;;2.33;2.33;;;;;18.30;66.81;100583.53;5039145;28;45651;-74
2023/08/08 01:21:18;;;;;;;;;3.00;2.00;;;;;18.27;66.70;100581.78;5038743;28;45264;-74
2023/08/08 01:23:52;;;;;;;;;2.33;2.00;;;;;18.35;66.05;100586.19;5038706;28;45343;-74
2023/08/08 01:26:18;;;;;;;;;3.33;2.33;;;;;18.38;65.62;100579.13;5038544;28;45371;-73
2023/08/08 01:28:44;;;;;;;;;3.00;3.00;;;;;18.30;65.63;100572.94;5039206;28;45292;-74
2023/08/08 01:31:09;;;;;;;;;3.00;3.00;;;;;18.33;65.88;100578.25;5038541;28;46114;-74
2023/08/08 01:33:36;;;;;;;;;2.00;2.00;;;;;18.37;65.91;100579.13;5039059;28;45423;-74
2023/08/08 01:36:13;;;;;;;;;2.00;2.00;;;;;18.33;65.78;100580.88;5038973;28;45715;-74
2023/08/08 01:38:43;;;;;;;;;2.00;2.00;;;;;18.28;66.11;100580.91;5036994;28;46050;-74
2023/08/08 01:41:09;;;;;;;;;3.00;3.00;;;;;18.24;66.25;100575.59;5023440;28;45312;-74
2023/08/08 01:43:38;;;;;;;;;3.00;3.00;;;;;18.26;66.63;100581.75;5038967;28;45432;-74
2023/08/08 01:46:04;;;;;;;;;2.67;2.00;;;;;18.21;66.66;100568.56;5039081;28;45236;-74
2023/08/08 01:48:30;;;;;;;;;3.00;3.00;;;;;18.22;65.88;100569.44;5038873;28;45765;-74
2023/08/08 01:50:55;;;;;;;;;2.00;2.00;;;;;18.13;66.78;100564.19;5038135;28;46209;-74
2023/08/08 01:53:21;;;;;;;;;2.00;2.00;;;;;18.16;66.91;100562.38;5039210;28;45507;-74
2023/08/08 01:55:46;;;;;;;;;2.33;2.00;;;;;18.15;66.79;100571.22;5037618;28;45372;-74
2023/08/08 01:58:12;;;;;;;;;2.33;2.33;;;;;18.12;66.54;100565.03;5038718;28;45454;-74
2023/08/08 02:00:40;;;;;;;;;2.00;2.00;;;;;18.08;66.82;100565.06;5038728;28;45477;-74
2023/08/08 02:03:05;;;;;;;;;3.00;3.00;;;;;18.16;66.84;100574.72;5038898;28;45509;-74
2023/08/08 02:05:31;;;;;;;;;2.00;2.00;;;;;18.15;67.17;100579.16;5037902;28;45461;-74
2023/08/08 02:07:57;;;;;;;;;2.00;2.00;;;;;18.14;66.96;100568.56;5037548;28;45478;-74
2023/08/08 02:10:22;;;;;;;;;3.00;2.00;;;;;18.08;66.75;100572.09;5025108;28;46287;-74
2023/08/08 02:12:48;;;;;;;;;2.00;2.00;;;;;18.04;66.48;100578.25;5038231;28;45451;-74
2023/08/08 02:15:13;;;;;;;;;2.00;1.33;;;;;17.96;66.89;100570.31;5037615;28;45521;-74
2023/08/08 02:17:39;;;;;;;;;3.00;2.00;;;;;18.02;67.06;100572.09;5038845;28;45315;-73
2023/08/08 02:20:06;;;;;;;;;2.00;2.00;;;;;18.00;67.15;100582.66;5038219;28;45635;-74
2023/08/08 02:22:32;;;;;;;;;3.00;3.00;;;;;17.94;67.30;100577.38;5036766;28;45778;-74
2023/08/08 02:24:57;;;;;;;;;2.00;1.67;;;;;17.93;67.27;100567.69;5037777;28;45444;-74
2023/08/08 02:27:24;;;;;;;;;2.00;2.00;;;;;17.87;66.94;100565.94;5037807;28;45516;-74
2023/08/08 02:29:50;;;;;;;;;2.00;2.00;;;;;17.93;67.29;100580.91;5038028;28;45555;-74
2023/08/08 02:32:15;;;;;;;;;3.00;2.67;;;;;17.87;66.97;100573.00;5037772;28;45611;-74
2023/08/08 02:34:42;;;;;;;;;2.00;1.67;;;;;18.00;66.46;100579.16;5038039;28;45385;-74
2023/08/08 02:37:08;;;;;;;;;2.00;1.00;;;;;17.98;66.35;100572.97;5036888;28;45612;-74
2023/08/08 02:39:33;;;;;;;;;2.67;2.67;;;;;17.94;66.69;100569.44;5037052;28;45314;-74
2023/08/08 02:41:59;;;;;;;;;2.00;2.00;;;;;17.87;66.90;100565.06;5037793;28;45319;-74
2023/08/08 02:44:24;;;;;;;;;3.00;2.00;;;;;17.73;67.57;100548.28;5036636;28;45597;-74
2023/08/08 02:46:50;;;;;;;;;1.67;1.67;;;;;17.85;67.49;100574.75;5038387;28;45392;-74
2023/08/08 02:49:16;;;;;;;;;3.00;2.33;;;;;17.74;67.60;100557.97;5037536;28;45430;-73
2023/08/08 02:51:41;;;;;;;;;2.00;2.00;;;;;17.80;67.46;100577.34;5037985;28;45571;-73
2023/08/08 02:54:07;;;;;;;;;2.00;2.00;;;;;17.59;67.20;100553.56;5022967;28;45519;-74
2023/08/08 02:56:32;;;;;;;;;2.00;2.00;;;;;17.70;66.91;100557.06;5035103;28;45240;-74
2023/08/08 02:58:58;;;;;;;;;3.00;3.00;;;;;17.77;67.17;100565.91;5030767;28;46150;-74
2023/08/08 03:01:24;;;;;;;;;3.33;2.67;;;;;17.79;67.65;100572.94;5027312;28;45741;-74
2023/08/08 03:03:49;;;;;;;;;2.00;2.00;;;;;17.74;68.07;100579.09;5037576;28;45554;-74
2023/08/08 03:06:15;;;;;;;;;2.33;2.00;;;;;17.59;68.66;100559.72;5037464;28;45218;-73
2023/08/08 03:08:41;;;;;;;;;3.00;3.00;;;;;17.65;68.28;100578.22;5020174;28;46291;-74
2023/08/08 03:11:06;;;;;;;;;3.00;3.00;;;;;17.63;68.35;100576.44;5033888;28;45480;-75
2023/08/08 03:13:32;;;;;;;;;2.00;2.00;;;;;17.67;68.24;100576.44;5036078;28;45582;-74
2023/08/08 03:15:57;;;;;;;;;2.67;2.33;;;;;17.73;68.04;100577.34;5037239;28;45473;-74
2023/08/08 03:18:25;;;;;;;;;2.67;2.67;;;;;17.77;68.26;100577.34;5036790;28;45953;-74
2023/08/08 03:20:51;;;;;;;;;3.33;2.00;;;;;17.73;67.83;100558.84;5036711;28;45444;-74
2023/08/08 03:23:18;;;;;;;;;3.00;2.00;;;;;17.78;67.35;100568.53;5021783;28;45482;-75
2023/08/08 03:25:44;;;;;;;;;3.00;2.67;;;;;17.65;67.71;100557.06;5037573;28;45391;-74
2023/08/08 03:28:09;;;;;;;;;3.00;2.00;;;;;17.64;68.24;100572.91;5035554;28;46323;-74
2023/08/08 03:30:38;;;;;;;;;3.00;2.33;;;;;17.56;68.66;100577.31;5036398;28;45228;-74
2023/08/08 03:33:05;;;;;;;;;2.00;1.00;;;;;17.45;68.76;100567.63;5032423;28;45419;-74
2023/08/08 03:35:30;;;;;;;;;2.67;2.67;;;;;17.46;68.65;100564.06;5024154;28;45530;-74
2023/08/08 03:37:56;;;;;;;;;4.00;3.00;;;;;17.49;68.12;100550.88;5036902;28;46121;-73
2023/08/08 03:40:21;;;;;;;;;2.33;2.00;;;;;17.67;67.69;100559.72;5036214;28;45545;-74
2023/08/08 03:42:47;;;;;;;;;3.33;3.00;;;;;17.60;68.19;100566.75;5036590;28;45486;-74
2023/08/08 03:45:13;;;;;;;;;2.67;2.00;;;;;17.63;68.01;100566.75;5037333;28;45495;-74
2023/08/08 03:47:38;;;;;;;;;4.00;2.33;;;;;17.68;68.24;100570.28;5036733;28;46016;-74
2023/08/08 03:50:05;;;;;;;;;3.00;2.00;;;;;17.66;67.73;100566.75;5035649;28;45341;-74
2023/08/08 03:52:34;;;;;;;;;4.00;3.00;;;;;17.65;67.98;100570.28;5036703;28;45426;-74
2023/08/08 03:54:59;;;;;;;;;2.33;2.33;;;;;17.60;68.10;100568.50;5036882;28;45446;-74
2023/08/08 03:57:25;;;;;;;;;3.00;3.00;;;;;17.60;68.05;100564.09;5023204;28;46360;-74
2023/08/08 03:59:50;;;;;;;;;4.00;2.67;;;;;17.69;68.03;100577.34;5032066;28;45739;-74
2023/08/08 04:02:16;;;;;;;;;2.00;2.00;;;;;17.72;68.15;100570.28;5035552;28;45502;-74
2023/08/08 04:04:42;;;;;;;;;1.33;1.33;;;;;17.66;67.92;100569.38;5037008;28;45382;-74
2023/08/08 04:07:07;;;;;;;;;3.33;3.00;;;;;17.60;67.94;100572.03;5036132;28;46200;-74
2023/08/08 04:09:33;;;;;;;;;2.33;2.33;;;;;17.54;67.94;100561.44;5036720;28;45568;-74
2023/08/08 04:11:58;;;;;;;;;3.33;2.67;;;;;17.57;68.19;100565.88;5036350;28;45513;-75
2023/08/08 04:14:24;;;;;;;;;5.00;3.33;;;;;17.65;67.88;100575.56;5035999;28;45346;-74
2023/08/08 04:16:49;;;;;;;;;3.00;3.00;;;;;17.65;67.76;100577.34;5035925;28;45466;-74
2023/08/08 04:19:15;;;;;;;;;3.33;2.67;;;;;17.54;68.15;100558.81;5036096;28;45389;-74
2023/08/08 04:21:41;;;;;;;;;3.00;3.00;;;;;17.59;67.98;100578.19;5035779;28;45727;-74
2023/08/08 04:24:07;;;;;;;;;3.67;3.33;;;;;17.58;67.99;100576.44;5036124;28;45477;-73
2023/08/08 04:26:33;;;;;;;;;3.00;3.00;;;;;17.52;67.90;100571.13;5035788;28;46074;-74
2023/08/08 04:28:59;;;;;;;;;3.00;3.00;;;;;17.50;67.89;100567.59;5019652;28;45546;-74
2023/08/08 04:31:25;;;;;;;;;2.00;1.33;;;;;17.57;68.31;100573.81;5033420;28;45608;-74
2023/08/08 04:33:52;;;;;;;;;4.00;4.00;;;;;17.55;67.93;100570.25;5036197;28;45445;-74
2023/08/08 04:36:18;;;;;;;;;2.00;2.00;;;;;17.50;68.21;100567.59;5035520;28;45449;-74
2023/08/08 04:38:43;;;;;;;;;3.33;3.00;;;;;17.37;68.24;100555.25;5034668;28;45554;-75
2023/08/08 04:41:09;;;;;;;;;3.00;3.00;;;;;17.47;68.17;100573.78;5035072;28;45484;-73
2023/08/08 04:43:34;;;;;;;;;4.00;4.00;;;;;17.46;68.23;100557.91;5035978;28;45533;-75
2023/08/08 04:46:00;;;;;;;;;3.00;3.00;;;;;17.36;69.72;100564.06;5035873;28;45914;-74
2023/08/08 04:48:26;;;;;;;;;2.67;2.67;;;;;17.27;69.31;100554.38;5035816;28;45569;-74
2023/08/08 04:50:52;;;;;;;;;3.00;3.00;;;;;17.19;69.94;100554.34;5035631;28;45475;-74
2023/08/08 04:53:17;;;;;;;;;4.00;2.67;;;;;17.24;70.36;100564.91;5036783;28;45357;-74
2023/08/08 04:55:43;;;;;;;;;3.33;3.00;;;;;17.25;70.48;100556.13;5036306;28;45462;-73
2023/08/08 04:58:09;;;;;;;;;3.67;3.67;;;;;17.28;70.39;100553.47;5036613;28;45339;-73
2023/08/08 05:00:36;;;;;;;;;3.00;2.67;;;;;17.18;70.85;100547.28;5036067;28;45451;-73
2023/08/08 05:03:01;;;;;;;;;4.00;4.00;;;;;17.25;70.70;100562.28;5035996;28;45624;-74
2023/08/08 05:05:28;;;;;;;;;1.67;1.00;;;;;17.20;71.14;100561.38;5035033;28;45351;-73
2023/08/08 05:07:53;;;;;;;;;3.00;2.67;;;;;17.12;71.24;100534.06;5034625;28;45609;-74
2023/08/08 05:10:19;;;;;;;;;3.00;2.33;;;;;17.23;71.43;100553.47;5034860;28;45430;-74
2023/08/08 05:12:44;;;;;;;;;2.33;2.33;;;;;17.26;71.41;100549.94;5033981;28;45564;-74
2023/08/08 05:15:10;;;;;;;;;4.67;4.00;;;;;17.25;71.72;100550.84;5035251;28;45349;-74
2023/08/08 05:17:36;;;;;;;;;4.00;4.00;;;;;17.17;71.84;100542.91;5035550;28;45551;-74
2023/08/08 05:20:02;;;;;;;;;3.00;2.67;;;;;17.23;71.58;100544.66;5034878;28;45480;-74
2023/08/08 05:22:28;;;;;;;;;3.33;3.33;;;;;17.33;70.85;100556.13;5035162;28;45454;-74
2023/08/08 05:24:53;;;;;;;;;4.00;4.00;;;;;17.30;70.70;100549.97;5035268;28;46079;-74
2023/08/08 05:27:19;;;;;;;;;5.33;5.00;;;;;17.36;70.84;100549.09;5035840;28;45490;-74
2023/08/08 05:29:45;;;;;;;;;4.00;3.00;;;;;17.37;70.42;100540.31;5033618;28;45454;-74
2023/08/08 05:32:10;;;;;;;;;4.67;3.00;;;;;17.54;70.26;100542.09;5035625;28;45474;-74
2023/08/08 05:34:36;;;;;;;;;3.67;3.67;;;;;17.63;70.26;100553.56;5034793;28;45961;-74
2023/08/08 05:37:01;;;;;;;;;11.25;11.00;;;;;17.61;69.96;100543.88;5035425;28;45466;-74
2023/08/08 05:39:27;;;;;;;;;4.67;4.67;;;;;17.74;69.77;100548.25;5020524;28;45546;-74
2023/08/08 05:41:53;;;;;;;;;6.00;6.00;;;;;17.76;69.71;100553.56;5035604;28;45405;-74
2023/08/08 05:44:19;;;;;;;;;5.00;4.00;;;;;17.68;69.55;100545.63;5035165;28;46014;-74
2023/08/08 05:46:44;;;;;;;;;6.33;4.00;;;;;17.63;70.14;100545.63;5019822;28;45399;-74
2023/08/08 05:49:10;;;;;;;;;5.33;4.00;;;;;17.67;69.98;100550.03;5032938;28;45434;-74
2023/08/08 05:51:35;;;;;;;;;4.00;3.33;;;;;17.82;69.70;100558.84;5037278;28;45509;-74
2023/08/08 05:54:01;;;;;;;;;5.00;4.00;;;;;17.86;69.63;100545.66;5038513;28;45439;-74
2023/08/08 05:56:37;;;;;;;;;4.00;3.00;;;;;17.88;69.54;100538.59;5038799;28;45518;-74
2023/08/08 05:59:04;;;;;;;;;5.00;5.00;;;;;18.08;68.96;100553.59;5038158;28;45617;-74
2023/08/08 06:01:30;;;;;;;;;5.00;4.00;;;;;18.07;69.09;100550.06;5038440;28;45474;-74
2023/08/08 06:03:55;;;;;;;;;4.33;3.33;;;;;18.16;69.29;100557.09;5036678;28;45402;-74
2023/08/08 06:06:21;;;;;;;;;4.67;4.67;;;;;18.20;68.69;100543.00;5038558;28;45465;-74
2023/08/08 06:08:46;;;;;;;;;5.00;5.00;;;;;18.31;68.77;100553.56;5022251;28;45470;-74
2023/08/08 06:11:12;;;;;;;;;6.67;5.00;;;;;18.44;68.79;100551.75;5037328;28;45541;-74
2023/08/08 06:13:38;;;;;;;;;26.50;25.50;;;;;18.51;68.61;100569.41;5038131;28;45940;-74
2023/08/08 06:16:06;;;;;;;;;11.00;10.67;;;;;18.52;68.55;100557.91;5038191;28;45459;-73
2023/08/08 06:18:33;;;;;;;;;5.00;5.00;;;;;18.55;68.50;100552.63;5037671;28;45660;-73
2023/08/08 06:20:58;;;;;;;;;7.00;6.00;;;;;18.72;68.00;100555.25;5038007;28;45374;-74
2023/08/08 06:23:24;;;;;;;;;6.67;5.67;;;;;18.95;67.68;100564.88;5037941;28;45878;-74
2023/08/08 06:25:50;;;;;;;;;5.67;5.00;;;;;20.29;66.50;100577.25;5038038;28;45267;-73
2023/08/08 06:28:15;;;;;;;;;4.33;4.33;;;;;23.62;57.06;100547.91;5035982;28;45482;-73
2023/08/08 06:30:41;;;;;;;;;3.00;3.00;;;;;26.16;50.75;100556.69;5038440;28;45500;-74
2023/08/08 06:33:06;;;;;;;;;3.33;3.00;;;;;27.99;45.67;100548.88;5037978;28;45352;-74
2023/08/08 06:35:32;;;;;;;;;5.00;5.00;;;;;29.52;43.51;100554.50;5037968;28;45501;-74
2023/08/08 06:37:58;;;;;;;;;2.00;2.00;;;;;30.80;40.69;100547.13;5037482;28;45272;-74
2023/08/08 06:40:23;;;;;;;;;2.00;2.00;;;;;32.07;38.49;100555.28;5038689;28;45307;-74
2023/08/08 06:42:49;;;;;;;;;3.00;3.00;;;;;32.81;35.74;100559.78;5037236;28;45906;-74
2023/08/08 06:45:15;;;;;;;;;3.00;2.67;;;;;33.44;35.98;100544.91;5037942;28;45547;-74
2023/08/08 06:47:40;;;;;;;;;2.00;2.00;;;;;34.61;33.49;100558.72;5037644;28;45327;-74
2023/08/08 06:50:07;;;;;;;;;4.00;3.00;;;;;35.08;32.75;100550.91;5037081;28;45486;-75
2023/08/08 06:52:32;;;;;;;;;2.00;2.00;;;;;35.30;31.42;100550.22;5037665;28;46153;-75
2023/08/08 06:54:58;;;;;;;;;2.33;2.00;;;;;36.08;30.79;100559.78;5037026;28;45359;-74
2023/08/08 06:57:23;;;;;;;;;1.67;1.67;;;;;36.61;30.09;100560.19;5029445;28;47084;-75
2023/08/08 06:59:50;;;;;;;;;2.33;2.33;;;;;37.17;29.49;100562.09;5029125;28;45491;-74
2023/08/08 07:02:18;;;;;;;;;5.00;3.00;;;;;37.33;28.64;100563.56;5036855;28;46057;-74
2023/08/08 07:04:43;;;;;;;;;2.00;2.00;;;;;37.62;28.50;100563.88;5036904;28;45534;-74
2023/08/08 07:07:10;;;;;;;;;3.00;1.33;;;;;38.32;27.29;100559.75;5036921;28;45533;-74
2023/08/08 07:09:37;;;;;;;;;1.67;1.00;;;;;38.96;26.37;100557.81;5037535;28;45637;-75
2023/08/08 07:12:03;;;;;;;;;0.00;0.00;;;;;38.72;26.65;100544.47;5036024;28;46105;-74
2023/08/08 07:14:29;;;;;;;;;1.00;1.00;;;;;39.12;26.44;100549.16;5035055;28;45577;-74
2023/08/08 07:16:55;;;;;;;;;2.67;1.67;;;;;38.56;26.79;100551.31;5035364;28;45477;-74
2023/08/08 07:19:21;;;;;;;;;2.00;2.00;;;;;39.19;25.96;100556.63;5035522;28;45528;-74
2023/08/08 07:21:47;;;;;;;;;2.67;1.33;;;;;39.38;26.16;100561.28;5036465;28;45612;-75
2023/08/08 07:24:13;;;;;;;;;2.33;2.00;;;;;39.69;25.57;100550.25;5034592;28;45661;-74
2023/08/08 07:26:39;;;;;;;;;2.00;1.33;;;;;39.84;25.33;100556.19;5034627;28;45505;-74
2023/08/08 07:29:05;;;;;;;;;2.00;1.00;;;;;40.60;24.34;100552.66;5036213;28;45624;-75
2023/08/08 07:31:32;;;;;;;;;2.00;2.00;;;;;41.37;25.75;100547.03;5035704;28;45425;-74
2023/08/08 07:33:58;;;;;;;;;2.67;2.00;;;;;42.00;24.24;100552.47;5034805;28;45540;-74
2023/08/08 07:36:23;;;;;;;;;3.00;3.00;;;;;41.71;23.46;100550.84;5035496;28;45445;-72
2023/08/08 07:38:49;;;;;;;;;2.33;2.33;;;;;41.68;23.58;100537.44;5036859;28;45478;-73
2023/08/08 07:41:15;;;;;;;;;2.67;2.00;;;;;42.24;22.85;100534.50;5034786;28;46038;-74
2023/08/08 07:43:40;;;;;;;;;2.00;2.00;;;;;42.55;23.24;100545.03;5036372;28;45577;-73
2023/08/08 07:46:06;;;;;;;;;1.67;1.00;;;;;42.94;21.51;100544.56;5035943;28;45599;-73
2023/08/08 07:48:32;;;;;;;;;1.67;1.00;;;;;43.32;21.50;100545.06;5035064;28;45428;-73
2023/08/08 07:50:57;;;;;;;;;2.00;1.00;;;;;43.61;21.61;100550.13;5036461;28;45989;-74
2023/08/08 07:53:23;;;;;;;;;2.00;1.33;;;;;44.01;20.94;100541.09;5036267;28;45398;-75
2023/08/08 07:55:49;;;;;;;;;2.00;1.00;;;;;44.47;20.07;100535.00;5036183;28;46984;-74
2023/08/08 07:58:14;;;;;;;;;1.67;1.67;;;;;44.26;20.99;100541.94;5025049;28;46539;-71
2023/08/08 08:00:40;;;;;;;;;6.67;6.00;;;;;44.41;20.15;100539.34;5034162;28;45803;-71
2023/08/08 08:03:06;;;;;;;;;0.67;0.67;;;;;44.79;19.94;100539.59;5034787;28;45406;-72
2023/08/08 08:05:34;;;;;;;;;2.33;1.33;;;;;45.23;20.03;100522.53;5036302;28;45489;-72
2023/08/08 08:08:00;;;;;;;;;1.33;1.33;;;;;45.34;19.63;100529.56;5036563;28;45278;-72
2023/08/08 08:10:25;;;;;;;;;1.00;1.00;;;;;45.54;19.43;100529.94;5034565;28;45540;-72
2023/08/08 08:12:57;;;;;;;;;2.67;2.00;;;;;45.23;19.73;100533.56;5034060;28;45453;-72
2023/08/08 08:15:24;;;;;;;;;1.33;1.00;;;;;45.03;19.52;100521.28;5034242;28;45359;-72
2023/08/08 08:17:49;;;;;;;;;0.33;0.33;;;;;45.31;19.67;100524.41;5035633;28;45439;-72
2023/08/08 08:20:15;;;;;;;;;2.00;1.33;;;;;46.09;19.38;100543.72;5033035;28;45479;-72
2023/08/08 08:22:41;;;;;;;;;1.00;1.00;;;;;46.28;19.07;100528.50;5032582;28;45524;-71
2023/08/08 08:25:09;;;;;;;;;3.00;3.00;;;;;45.99;19.07;100519.94;5033887;28;45272;-72
2023/08/08 08:27:42;;;;;;;;;1.00;1.00;;;;;45.69;19.56;100534.72;5032493;28;45586;-72
2023/08/08 08:30:11;;;;;;;;;1.67;1.67;;;;;45.12;19.35;100522.09;5032792;28;46602;-72
2023/08/08 08:32:39;;;;;;;;;1.33;1.33;;;;;45.73;19.75;100530.53;5034963;28;45513;-72
2023/08/08 08:35:06;;;;;;;;;2.00;2.00;;;;;45.88;19.66;100534.19;5034383;28;45550;-72
2023/08/08 08:37:32;;;;;;;;;2.00;2.00;;;;;46.17;18.97;100536.19;5031901;28;45843;-72
2023/08/08 08:39:59;;;;;;;;;3.00;2.00;;;;;45.84;19.15;100535.59;5030870;28;46412;-73
2023/08/08 08:42:27;;;;;;;;;2.33;1.67;;;;;45.16;19.76;100532.56;5032822;28;45399;-72
2023/08/08 08:44:57;;;;;;;;;2.00;2.00;;;;;45.10;19.89;100535.19;5032005;28;45354;-72
2023/08/08 08:47:25;;;;;;;;;1.00;1.00;;;;;45.20;19.79;100535.81;5034211;28;45500;-73
2023/08/08 08:49:52;;;;;;;;;0.67;0.33;;;;;45.16;19.65;100534.47;5033142;28;45502;-72
2023/08/08 08:52:19;;;;;;;;;2.33;2.33;;;;;45.28;19.06;100540.47;5031800;28;45674;-75
2023/08/08 08:54:44;;;;;;;;;0.67;0.67;;;;;45.04;18.77;100537.63;5032299;28;45541;-72
2023/08/08 08:57:11;;;;;;;;;2.67;2.33;;;;;44.89;19.57;100522.00;5030456;28;45579;-72
2023/08/08 08:59:37;;;;;;;;;2.00;2.00;;;;;45.09;18.75;100534.34;5033589;28;46066;-71
2023/08/08 09:02:03;;;;;;;;;4.00;3.00;;;;;44.66;19.71;100533.78;5031489;28;46274;-71
2023/08/08 09:04:30;;;;;;;;;2.00;2.00;;;;;44.28;19.87;100539.88;5035464;28;45382;-71
2023/08/08 09:06:56;;;;;;;;;3.33;2.67;;;;;43.95;20.89;100533.50;5034375;28;45447;-74
2023/08/08 09:09:22;;;;;;;;;1.00;1.00;;;;;44.20;20.46;100539.88;5032950;28;46736;-74
2023/08/08 09:11:50;;;;;;;;;3.00;2.33;;;;;44.36;20.03;100530.72;5033905;28;45398;-74
2023/08/08 09:14:20;;;;;;;;;1.67;1.67;;;;;45.07;19.94;100506.09;5033548;28;45411;-75
2023/08/08 09:16:47;;;;;;;;;2.33;2.33;;;;;45.76;18.82;100513.59;5031194;28;45533;-75
2023/08/08 09:19:14;;;;;;;;;2.00;2.00;;;;;45.97;19.32;100523.94;5031705;28;45509;-75
2023/08/08 09:21:41;;;;;;;;;2.67;2.67;;;;;45.97;19.01;100519.28;5034107;28;45734;-75
2023/08/08 09:24:10;;;;;;;;;3.00;3.00;;;;;45.45;18.90;100500.72;5030784;28;45577;-76
2023/08/08 09:26:36;;;;;;;;;4.00;3.67;;;;;45.26;19.46;100502.88;5038243;28;45355;-75
2023/08/08 09:29:03;;;;;;;;;2.33;2.00;;;;;44.70;19.60;100507.59;5037926;28;46148;-74
2023/08/08 09:31:30;;;;;;;;;4.00;3.33;;;;;44.73;19.98;100507.25;5038093;28;45470;-73
2023/08/08 09:33:59;;;;;;;;;4.00;4.00;;;;;44.43;20.36;100509.72;5037124;28;45473;-72
2023/08/08 09:36:25;;;;;;;;;3.00;3.00;;;;;44.63;19.78;100488.19;5036275;28;45514;-73
2023/08/08 09:38:53;;;;;;;;;2.00;2.00;;;;;44.67;19.27;100466.66;5036703;28;45528;-72
2023/08/08 09:41:20;;;;;;;;;0.00;0.00;;;;;44.78;20.05;100506.72;5035574;28;46117;-72
2023/08/08 09:43:48;;;;;;;;;2.67;2.33;;;;;44.53;20.34;100508.69;5036161;28;45317;-73
2023/08/08 09:46:15;;;;;;;;;2.33;2.33;;;;;44.12;20.51;100481.25;5037509;28;45609;-74
2023/08/08 09:48:42;;;;;;;;;3.67;3.33;;;;;44.80;20.79;100502.72;5036633;28;45458;-71
2023/08/08 09:51:09;;;;;;;;;3.67;3.33;;;;;45.14;19.44;100503.47;5032083;28;45535;-73
2023/08/08 09:53:35;;;;;;;;;2.00;2.00;;;;;45.09;19.82;100495.75;5036228;28;45688;-73
2023/08/08 09:56:05;;;;;;;;;2.33;2.33;;;;;45.00;20.67;100485.78;5037832;28;45458;-74
2023/08/08 09:58:31;;;;;;;;;3.33;3.00;;;;;44.98;20.13;100494.22;5037093;28;45658;-73
2023/08/08 10:00:58;;;;;;;;;2.67;2.67;;;;;45.06;19.89;100501.59;5037639;28;45512;-77
2023/08/08 10:03:24;;;;;;;;;5.00;3.67;;;;;44.88;19.96;100495.50;5036419;28;45721;-73
2023/08/08 10:05:50;;;;;;;;;3.67;3.00;;;;;44.40;19.72;100503.72;5035586;28;45383;-72
2023/08/08 10:08:17;;;;;;;;;3.00;3.00;;;;;44.15;20.40;100509.25;5035273;28;45414;-71
2023/08/08 10:10:49;;;;;;;;;1.67;1.67;;;;;44.37;20.22;100504.03;5033834;28;45601;-74
2023/08/08 10:13:26;;;;;;;;;2.33;1.67;;;;;44.17;20.67;100503.56;5034364;28;45417;-71
2023/08/08 10:15:52;;;;;;;;;3.00;2.33;;;;;44.17;19.79;100500.81;5035136;28;45465;-72
2023/08/08 10:18:22;;;;;;;;;2.00;2.00;;;;;43.07;20.74;100490.00;5035967;28;45479;-73
2023/08/08 10:20:49;;;;;;;;;2.00;2.00;;;;;43.12;20.45;100501.38;5031462;28;45350;-71
2023/08/08 10:23:19;;;;;;;;;3.00;2.00;;;;;43.31;21.10;100497.47;5023947;28;45622;-72
2023/08/08 10:25:50;;;;;;;;;3.00;3.00;;;;;42.98;21.59;100489.13;5037041;28;45411;-71
2023/08/08 10:28:18;;;;;;;;;3.33;3.00;;;;;42.71;21.45;100487.44;5036058;28;45530;-72
2023/08/08 10:30:55;;;;;;;;;3.00;3.00;;;;;42.29;21.24;100480.00;5035628;28;45399;-73
2023/08/08 10:33:26;;;;;;;;;0.00;0.00;;;;;42.49;20.96;100461.41;5036830;28;45934;-72
2023/08/08 10:35:58;;;;;;;;;1.00;1.00;;;;;42.45;20.88;100466.38;5036832;28;45667;-72
2023/08/08 10:38:25;;;;;;;;;2.00;1.00;;;;;42.13;21.35;100454.16;5021441;28;46969;-72
2023/08/08 10:40:59;;;;;;;;;0.67;0.67;;;;;41.90;20.98;100441.94;5035090;28;45510;-71
2023/08/08 10:43:28;;;;;;;;;2.00;1.00;;;;;42.07;22.39;100465.78;5029219;28;45570;-71
2023/08/08 10:45:59;;;;;;;;;10.33;9.67;;;;;42.17;21.32;100473.06;5032348;28;45548;-71
2023/08/08 10:48:26;;;;;;;;;7.00;6.67;;;;;42.29;21.50;100466.25;5023971;28;46417;-72
2023/08/08 10:50:55;;;;;;;;;9.00;9.00;;;;;42.22;21.16;100460.56;5036202;28;45366;-72
2023/08/08 10:53:24;;;;;;;;;2.00;2.00;;;;;41.86;21.49;100455.16;5034917;28;45588;-71
2023/08/08 10:55:58;;;;;;;;;2.00;1.00;;;;;41.36;21.94;100463.91;5034419;28;45321;-72
2023/08/08 10:58:38;;;;;;;;;0.33;0.33;;;;;41.11;22.17;100455.44;5035484;28;45506;-71
2023/08/08 11:01:08;;;;;;;;;1.33;1.33;;;;;40.50;22.60;100456.88;5030923;28;45547;-72
2023/08/08 11:03:39;;;;;;;;;1.00;1.00;;;;;39.85;24.12;100466.78;5035214;28;45627;-72
2023/08/08 11:06:06;;;;;;;;;2.00;1.00;;;;;39.63;23.91;100462.50;5036240;28;45674;-72
2023/08/08 11:08:32;;;;;;;;;2.33;1.67;;;;;39.15;24.27;100459.56;5033731;28;45498;-70
2023/08/08 11:10:59;;;;;;;;;2.00;1.00;;;;;38.51;25.16;100448.97;5035795;28;45540;-72
2023/08/08 11:13:26;;;;;;;;;3.00;1.67;;;;;38.19;25.46;100441.78;5035804;28;45407;-71
2023/08/08 11:15:52;;;;;;;;;0.00;0.00;;;;;37.81;25.23;100433.19;5036151;28;45514;-70
2023/08/08 11:18:18;;;;;;;;;4.33;4.00;;;;;37.51;26.41;100444.00;5034926;28;45492;-71
2023/08/08 11:20:44;;;;;;;;;1.00;1.00;;;;;37.25;26.54;100443.44;5033972;28;45519;-70